sensor_id;sensor_type;location;lat;lon;timestamp;temperature;humidity
53073;DHT22;38955;48.916;2.336;2024-01-30T00:01:04;12.50;99.90
53073;DHT22;38955;48.916;2.336;2024-01-30T00:03:06;12.50;99.90
53073;DHT22;38955;48.916;2.336;2024-01-30T00:05:08;12.50;99.90
53073;DHT22;38955;48.916;2.336;2024-01-30T00:07:11;12.50;99.90
53073;DHT22;38955;48.916;2.336;2024-01-30T00:09:13;12.50;99.90
53073;DHT22;38955;48.916;2.336;2024-01-30T00:11:16;12.50;99.90
53073;DHT22;38955;48.916;2.336;2024-01-30T00:13:18;12.50;99.90
53073;DHT22;38955;48.916;2.336;2024-01-30T00:15:23;12.40;99.90
53073;DHT22;38955;48.916;2.336;2024-01-30T00:17:25;12.40;99.90
53073;DHT22;38955;48.916;2.336;2024-01-30T00:19:28;12.50;99.90
53073;DHT22;38955;48.916;2.336;2024-01-30T00:21:30;12.50;99.90
53073;DHT22;38955;48.916;2.336;2024-01-30T00:23:32;12.60;99.90
53073;DHT22;38955;48.916;2.336;2024-01-30T00:25:34;12.50;99.90
53073;DHT22;38955;48.916;2.336;2024-01-30T00:27:36;12.50;99.90
53073;DHT22;38955;48.916;2.336;2024-01-30T00:29:38;12.60;99.90
53073;DHT22;38955;48.916;2.336;2024-01-30T00:31:43;12.60;99.90
53073;DHT22;38955;48.916;2.336;2024-01-30T00:33:45;12.60;99.90
53073;DHT22;38955;48.916;2.336;2024-01-30T00:35:48;12.70;99.90
53073;DHT22;38955;48.916;2.336;2024-01-30T00:37:49;12.70;99.90
53073;DHT22;38955;48.916;2.336;2024-01-30T00:39:52;12.70;99.90
53073;DHT22;38955;48.916;2.336;2024-01-30T00:41:54;12.70;99.90
53073;DHT22;38955;48.916;2.336;2024-01-30T00:43:56;12.70;99.90
53073;DHT22;38955;48.916;2.336;2024-01-30T00:45:58;12.70;99.90
53073;DHT22;38955;48.916;2.336;2024-01-30T00:48:01;12.70;99.90
53073;DHT22;38955;48.916;2.336;2024-01-30T00:50:04;12.70;99.90
53073;DHT22;38955;48.916;2.336;2024-01-30T00:52:07;12.60;99.90
53073;DHT22;38955;48.916;2.336;2024-01-30T00:54:09;12.70;99.90
53073;DHT22;38955;48.916;2.336;2024-01-30T00:56:12;12.70;99.90
53073;DHT22;38955;48.916;2.336;2024-01-30T00:58:15;12.70;99.90
53073;DHT22;38955;48.916;2.336;2024-01-30T01:00:17;12.70;99.90
53073;DHT22;38955;48.916;2.336;2024-01-30T01:02:19;12.80;99.90
53073;DHT22;38955;48.916;2.336;2024-01-30T01:04:23;12.70;99.90
53073;DHT22;38955;48.916;2.336;2024-01-30T01:06:25;12.70;99.90
53073;DHT22;38955;48.916;2.336;2024-01-30T01:08:27;12.70;99.90
53073;DHT22;38955;48.916;2.336;2024-01-30T01:10:29;12.70;99.90
53073;DHT22;38955;48.916;2.336;2024-01-30T01:12:31;12.70;99.90
53073;DHT22;38955;48.916;2.336;2024-01-30T01:14:33;12.70;99.90
53073;DHT22;38955;48.916;2.336;2024-01-30T01:16:35;12.60;99.90
53073;DHT22;38955;48.916;2.336;2024-01-30T01:18:38;12.60;99.90
53073;DHT22;38955;48.916;2.336;2024-01-30T01:20:41;12.50;99.90
53073;DHT22;38955;48.916;2.336;2024-01-30T01:22:43;12.50;99.90
53073;DHT22;38955;48.916;2.336;2024-01-30T01:24:45;12.50;99.90
53073;DHT22;38955;48.916;2.336;2024-01-30T01:26:47;12.40;99.90
53073;DHT22;38955;48.916;2.336;2024-01-30T01:28:49;12.40;99.90
53073;DHT22;38955;48.916;2.336;2024-01-30T01:30:52;12.40;99.90
53073;DHT22;38955;48.916;2.336;2024-01-30T01:32:54;12.40;99.90
53073;DHT22;38955;48.916;2.336;2024-01-30T01:35:02;12.40;99.90
53073;DHT22;38955;48.916;2.336;2024-01-30T01:37:07;12.40;99.90
53073;DHT22;38955;48.916;2.336;2024-01-30T01:39:09;12.40;99.90
53073;DHT22;38955;48.916;2.336;2024-01-30T01:41:12;12.40;99.90
53073;DHT22;38955;48.916;2.336;2024-01-30T01:43:14;12.40;99.90
53073;DHT22;38955;48.916;2.336;2024-01-30T01:45:16;12.40;99.90
53073;DHT22;38955;48.916;2.336;2024-01-30T01:47:18;12.40;99.90
53073;DHT22;38955;48.916;2.336;2024-01-30T01:49:22;12.40;99.90
53073;DHT22;38955;48.916;2.336;2024-01-30T01:51:27;12.40;99.90
53073;DHT22;38955;48.916;2.336;2024-01-30T01:53:31;12.40;99.90
53073;DHT22;38955;48.916;2.336;2024-01-30T01:55:34;12.40;99.90
53073;DHT22;38955;48.916;2.336;2024-01-30T01:57:37;12.40;99.90
53073;DHT22;38955;48.916;2.336;2024-01-30T01:59:42;12.50;99.90
53073;DHT22;38955;48.916;2.336;2024-01-30T02:01:44;12.40;99.90
53073;DHT22;38955;48.916;2.336;2024-01-30T02:03:48;12.40;99.90
53073;DHT22;38955;48.916;2.336;2024-01-30T02:05:50;12.40;99.90
53073;DHT22;38955;48.916;2.336;2024-01-30T02:07:54;12.40;99.90
53073;DHT22;38955;48.916;2.336;2024-01-30T02:09:57;12.30;99.90
53073;DHT22;38955;48.916;2.336;2024-01-30T02:12:00;12.30;99.90
53073;DHT22;38955;48.916;2.336;2024-01-30T02:14:03;12.40;99.90
53073;DHT22;38955;48.916;2.336;2024-01-30T02:16:06;12.40;99.90
53073;DHT22;38955;48.916;2.336;2024-01-30T02:18:08;12.40;99.90
53073;DHT22;38955;48.916;2.336;2024-01-30T02:20:10;12.30;99.90
53073;DHT22;38955;48.916;2.336;2024-01-30T02:22:15;12.20;99.90
53073;DHT22;38955;48.916;2.336;2024-01-30T02:24:17;12.20;99.90
53073;DHT22;38955;48.916;2.336;2024-01-30T02:26:19;12.20;99.90
53073;DHT22;38955;48.916;2.336;2024-01-30T02:28:22;12.10;99.90
53073;DHT22;38955;48.916;2.336;2024-01-30T02:30:24;12.10;99.90
53073;DHT22;38955;48.916;2.336;2024-01-30T02:32:26;12.10;99.90
53073;DHT22;38955;48.916;2.336;2024-01-30T02:34:28;12.10;99.90
53073;DHT22;38955;48.916;2.336;2024-01-30T02:36:30;12.00;99.90
53073;DHT22;38955;48.916;2.336;2024-01-30T02:38:34;12.00;99.90
53073;DHT22;38955;48.916;2.336;2024-01-30T02:40:36;12.10;99.90
53073;DHT22;38955;48.916;2.336;2024-01-30T02:42:38;12.20;99.90
53073;DHT22;38955;48.916;2.336;2024-01-30T02:44:41;12.20;99.90
53073;DHT22;38955;48.916;2.336;2024-01-30T02:46:43;12.20;99.90
53073;DHT22;38955;48.916;2.336;2024-01-30T02:48:45;12.30;99.90
53073;DHT22;38955;48.916;2.336;2024-01-30T02:50:47;12.30;99.90
53073;DHT22;38955;48.916;2.336;2024-01-30T02:52:49;12.40;99.90
53073;DHT22;38955;48.916;2.336;2024-01-30T02:54:53;12.30;99.90
53073;DHT22;38955;48.916;2.336;2024-01-30T02:56:55;12.30;99.90
53073;DHT22;38955;48.916;2.336;2024-01-30T02:58:57;12.40;99.90
53073;DHT22;38955;48.916;2.336;2024-01-30T03:00:59;12.40;99.90
53073;DHT22;38955;48.916;2.336;2024-01-30T03:03:01;12.40;99.90
53073;DHT22;38955;48.916;2.336;2024-01-30T03:05:05;12.50;99.90
53073;DHT22;38955;48.916;2.336;2024-01-30T03:07:07;12.50;99.90
53073;DHT22;38955;48.916;2.336;2024-01-30T03:09:09;12.50;99.90
53073;DHT22;38955;48.916;2.336;2024-01-30T03:11:13;12.50;99.90
53073;DHT22;38955;48.916;2.336;2024-01-30T03:13:15;12.60;99.90
53073;DHT22;38955;48.916;2.336;2024-01-30T03:15:17;12.60;99.90
53073;DHT22;38955;48.916;2.336;2024-01-30T03:17:19;12.60;99.90
53073;DHT22;38955;48.916;2.336;2024-01-30T03:19:21;12.50;99.90
53073;DHT22;38955;48.916;2.336;2024-01-30T03:21:23;12.50;99.90
53073;DHT22;38955;48.916;2.336;2024-01-30T03:23:26;12.50;99.90
53073;DHT22;38955;48.916;2.336;2024-01-30T03:25:28;12.60;99.90
53073;DHT22;38955;48.916;2.336;2024-01-30T03:27:31;12.60;99.90
53073;DHT22;38955;48.916;2.336;2024-01-30T03:29:33;12.60;99.90
53073;DHT22;38955;48.916;2.336;2024-01-30T03:31:35;12.60;99.90
53073;DHT22;38955;48.916;2.336;2024-01-30T03:33:37;12.50;99.90
53073;DHT22;38955;48.916;2.336;2024-01-30T03:35:41;12.60;99.90
53073;DHT22;38955;48.916;2.336;2024-01-30T03:37:43;12.60;99.90
53073;DHT22;38955;48.916;2.336;2024-01-30T03:39:45;12.70;99.90
53073;DHT22;38955;48.916;2.336;2024-01-30T03:41:47;12.50;99.90
53073;DHT22;38955;48.916;2.336;2024-01-30T03:43:51;12.50;99.90
53073;DHT22;38955;48.916;2.336;2024-01-30T03:45:53;12.50;99.90
53073;DHT22;38955;48.916;2.336;2024-01-30T03:47:55;12.50;99.90
53073;DHT22;38955;48.916;2.336;2024-01-30T03:50:00;12.40;99.90
53073;DHT22;38955;48.916;2.336;2024-01-30T03:52:03;12.30;99.90
53073;DHT22;38955;48.916;2.336;2024-01-30T03:54:05;12.30;99.90
53073;DHT22;38955;48.916;2.336;2024-01-30T03:56:08;12.30;99.90
53073;DHT22;38955;48.916;2.336;2024-01-30T03:58:10;12.20;99.90
53073;DHT22;38955;48.916;2.336;2024-01-30T04:00:14;12.20;99.90
53073;DHT22;38955;48.916;2.336;2024-01-30T04:02:17;12.10;99.90
53073;DHT22;38955;48.916;2.336;2024-01-30T04:04:20;12.20;99.90
53073;DHT22;38955;48.916;2.336;2024-01-30T04:06:22;12.20;99.90
53073;DHT22;38955;48.916;2.336;2024-01-30T04:08:24;12.20;99.90
53073;DHT22;38955;48.916;2.336;2024-01-30T04:10:27;12.20;99.90
53073;DHT22;38955;48.916;2.336;2024-01-30T04:12:29;12.20;99.90
53073;DHT22;38955;48.916;2.336;2024-01-30T04:14:31;12.20;99.90
53073;DHT22;38955;48.916;2.336;2024-01-30T04:16:34;12.30;99.90
53073;DHT22;38955;48.916;2.336;2024-01-30T04:18:36;12.30;99.90
53073;DHT22;38955;48.916;2.336;2024-01-30T04:20:39;12.20;99.90
53073;DHT22;38955;48.916;2.336;2024-01-30T04:22:41;12.20;99.90
53073;DHT22;38955;48.916;2.336;2024-01-30T04:24:43;12.20;99.90
53073;DHT22;38955;48.916;2.336;2024-01-30T04:26:45;12.20;99.90
53073;DHT22;38955;48.916;2.336;2024-01-30T04:28:47;12.20;99.90
53073;DHT22;38955;48.916;2.336;2024-01-30T04:30:49;12.20;99.90
53073;DHT22;38955;48.916;2.336;2024-01-30T04:32:53;12.30;99.90
53073;DHT22;38955;48.916;2.336;2024-01-30T04:34:55;12.30;99.90
53073;DHT22;38955;48.916;2.336;2024-01-30T04:36:57;12.30;99.90
53073;DHT22;38955;48.916;2.336;2024-01-30T04:38:59;12.30;99.90
53073;DHT22;38955;48.916;2.336;2024-01-30T04:41:01;12.30;99.90
53073;DHT22;38955;48.916;2.336;2024-01-30T04:43:04;12.40;99.90
53073;DHT22;38955;48.916;2.336;2024-01-30T04:45:06;12.40;99.90
53073;DHT22;38955;48.916;2.336;2024-01-30T04:47:09;12.50;99.90
53073;DHT22;38955;48.916;2.336;2024-01-30T04:49:15;12.60;99.90
53073;DHT22;38955;48.916;2.336;2024-01-30T04:51:17;12.50;99.90
53073;DHT22;38955;48.916;2.336;2024-01-30T04:53:19;12.50;99.90
53073;DHT22;38955;48.916;2.336;2024-01-30T04:55:21;12.40;99.90
53073;DHT22;38955;48.916;2.336;2024-01-30T04:57:24;12.50;99.90
53073;DHT22;38955;48.916;2.336;2024-01-30T04:59:26;12.50;99.90
53073;DHT22;38955;48.916;2.336;2024-01-30T05:01:28;12.50;99.90
53073;DHT22;38955;48.916;2.336;2024-01-30T05:03:33;12.50;99.90
53073;DHT22;38955;48.916;2.336;2024-01-30T05:05:37;12.50;99.90
53073;DHT22;38955;48.916;2.336;2024-01-30T05:07:41;12.60;99.90
53073;DHT22;38955;48.916;2.336;2024-01-30T05:09:43;12.50;99.90
53073;DHT22;38955;48.916;2.336;2024-01-30T05:11:45;12.50;99.90
53073;DHT22;38955;48.916;2.336;2024-01-30T05:13:47;12.50;99.90
53073;DHT22;38955;48.916;2.336;2024-01-30T05:15:49;12.50;99.90
53073;DHT22;38955;48.916;2.336;2024-01-30T05:17:51;12.60;99.90
53073;DHT22;38955;48.916;2.336;2024-01-30T05:19:54;12.50;99.90
53073;DHT22;38955;48.916;2.336;2024-01-30T05:21:57;12.60;99.90
53073;DHT22;38955;48.916;2.336;2024-01-30T05:23:59;12.50;99.90
53073;DHT22;38955;48.916;2.336;2024-01-30T05:26:01;12.50;99.90
53073;DHT22;38955;48.916;2.336;2024-01-30T05:28:05;12.50;99.90
53073;DHT22;38955;48.916;2.336;2024-01-30T05:30:07;12.50;99.90
53073;DHT22;38955;48.916;2.336;2024-01-30T05:32:09;12.60;99.90
53073;DHT22;38955;48.916;2.336;2024-01-30T05:34:13;12.60;99.90
53073;DHT22;38955;48.916;2.336;2024-01-30T05:36:16;12.60;99.90
53073;DHT22;38955;48.916;2.336;2024-01-30T05:38:19;12.50;99.90
53073;DHT22;38955;48.916;2.336;2024-01-30T05:40:21;12.50;99.90
53073;DHT22;38955;48.916;2.336;2024-01-30T05:42:23;12.50;99.90
53073;DHT22;38955;48.916;2.336;2024-01-30T05:44:25;12.60;99.90
53073;DHT22;38955;48.916;2.336;2024-01-30T05:46:27;12.50;99.90
53073;DHT22;38955;48.916;2.336;2024-01-30T05:48:30;12.50;99.90
53073;DHT22;38955;48.916;2.336;2024-01-30T05:50:32;12.50;99.90
53073;DHT22;38955;48.916;2.336;2024-01-30T05:52:34;12.50;99.90
53073;DHT22;38955;48.916;2.336;2024-01-30T05:54:38;12.50;99.90
53073;DHT22;38955;48.916;2.336;2024-01-30T05:56:41;12.40;99.90
53073;DHT22;38955;48.916;2.336;2024-01-30T05:58:43;12.50;99.90
53073;DHT22;38955;48.916;2.336;2024-01-30T06:00:45;12.50;99.90
53073;DHT22;38955;48.916;2.336;2024-01-30T06:02:48;12.50;99.90
53073;DHT22;38955;48.916;2.336;2024-01-30T06:04:50;12.50;99.90
53073;DHT22;38955;48.916;2.336;2024-01-30T06:06:52;12.60;99.90
53073;DHT22;38955;48.916;2.336;2024-01-30T06:08:54;12.50;99.90
53073;DHT22;38955;48.916;2.336;2024-01-30T06:10:59;12.50;99.90
53073;DHT22;38955;48.916;2.336;2024-01-30T06:13:02;12.60;99.90
53073;DHT22;38955;48.916;2.336;2024-01-30T06:15:05;12.60;99.90
53073;DHT22;38955;48.916;2.336;2024-01-30T06:17:08;12.50;99.90
53073;DHT22;38955;48.916;2.336;2024-01-30T06:19:13;12.50;99.90
53073;DHT22;38955;48.916;2.336;2024-01-30T06:21:15;12.60;99.90
53073;DHT22;38955;48.916;2.336;2024-01-30T06:23:17;12.50;99.90
53073;DHT22;38955;48.916;2.336;2024-01-30T06:25:19;12.60;99.90
53073;DHT22;38955;48.916;2.336;2024-01-30T06:27:23;12.60;99.90
53073;DHT22;38955;48.916;2.336;2024-01-30T06:29:26;12.60;99.90
53073;DHT22;38955;48.916;2.336;2024-01-30T06:31:28;12.60;99.90
53073;DHT22;38955;48.916;2.336;2024-01-30T06:33:31;12.60;99.90
53073;DHT22;38955;48.916;2.336;2024-01-30T06:35:33;12.50;99.90
53073;DHT22;38955;48.916;2.336;2024-01-30T06:37:37;12.60;99.90
53073;DHT22;38955;48.916;2.336;2024-01-30T06:39:39;12.60;99.90
53073;DHT22;38955;48.916;2.336;2024-01-30T06:41:41;12.60;99.90
53073;DHT22;38955;48.916;2.336;2024-01-30T06:43:45;12.70;99.90
53073;DHT22;38955;48.916;2.336;2024-01-30T06:45:48;12.70;99.90
53073;DHT22;38955;48.916;2.336;2024-01-30T06:47:50;12.70;99.90
53073;DHT22;38955;48.916;2.336;2024-01-30T06:49:52;12.70;99.90
53073;DHT22;38955;48.916;2.336;2024-01-30T06:51:54;12.80;99.90
53073;DHT22;38955;48.916;2.336;2024-01-30T06:53:56;12.80;99.90
53073;DHT22;38955;48.916;2.336;2024-01-30T06:55:58;12.80;99.90
53073;DHT22;38955;48.916;2.336;2024-01-30T06:58:00;12.80;99.90
53073;DHT22;38955;48.916;2.336;2024-01-30T07:00:05;12.90;99.90
53073;DHT22;38955;48.916;2.336;2024-01-30T07:02:07;12.90;99.90
53073;DHT22;38955;48.916;2.336;2024-01-30T07:04:09;12.90;99.90
53073;DHT22;38955;48.916;2.336;2024-01-30T07:06:12;12.90;99.90
53073;DHT22;38955;48.916;2.336;2024-01-30T07:08:15;12.90;99.90
53073;DHT22;38955;48.916;2.336;2024-01-30T07:10:18;12.90;99.90
53073;DHT22;38955;48.916;2.336;2024-01-30T07:12:21;12.90;99.90
53073;DHT22;38955;48.916;2.336;2024-01-30T07:14:23;12.80;99.90
53073;DHT22;38955;48.916;2.336;2024-01-30T07:16:26;12.90;99.90
53073;DHT22;38955;48.916;2.336;2024-01-30T07:18:28;12.90;99.90
53073;DHT22;38955;48.916;2.336;2024-01-30T07:20:30;12.90;99.90
53073;DHT22;38955;48.916;2.336;2024-01-30T07:22:34;13.00;99.90
53073;DHT22;38955;48.916;2.336;2024-01-30T07:24:36;13.00;99.90
53073;DHT22;38955;48.916;2.336;2024-01-30T07:26:38;13.00;99.90
53073;DHT22;38955;48.916;2.336;2024-01-30T07:28:41;13.00;99.90
53073;DHT22;38955;48.916;2.336;2024-01-30T07:30:43;13.10;99.90
53073;DHT22;38955;48.916;2.336;2024-01-30T07:32:48;13.10;99.90
53073;DHT22;38955;48.916;2.336;2024-01-30T07:34:50;13.00;99.90
53073;DHT22;38955;48.916;2.336;2024-01-30T07:37:08;13.00;99.90
53073;DHT22;38955;48.916;2.336;2024-01-30T07:39:10;13.00;99.90
53073;DHT22;38955;48.916;2.336;2024-01-30T07:41:12;13.00;99.90
53073;DHT22;38955;48.916;2.336;2024-01-30T07:43:14;13.10;99.90
53073;DHT22;38955;48.916;2.336;2024-01-30T07:45:16;13.10;99.90
53073;DHT22;38955;48.916;2.336;2024-01-30T07:47:23;13.10;99.90
53073;DHT22;38955;48.916;2.336;2024-01-30T07:49:26;13.00;99.90
53073;DHT22;38955;48.916;2.336;2024-01-30T07:51:28;13.10;99.90
53073;DHT22;38955;48.916;2.336;2024-01-30T07:53:33;13.10;99.90
53073;DHT22;38955;48.916;2.336;2024-01-30T07:55:35;13.10;99.90
53073;DHT22;38955;48.916;2.336;2024-01-30T07:57:38;13.10;99.90
53073;DHT22;38955;48.916;2.336;2024-01-30T07:59:42;13.10;99.90
53073;DHT22;38955;48.916;2.336;2024-01-30T08:01:44;13.10;99.90
53073;DHT22;38955;48.916;2.336;2024-01-30T08:03:46;13.10;99.90
53073;DHT22;38955;48.916;2.336;2024-01-30T08:05:49;13.10;99.90
53073;DHT22;38955;48.916;2.336;2024-01-30T08:07:52;13.10;99.90
53073;DHT22;38955;48.916;2.336;2024-01-30T08:09:54;13.10;99.90
53073;DHT22;38955;48.916;2.336;2024-01-30T08:11:56;13.10;99.90
53073;DHT22;38955;48.916;2.336;2024-01-30T08:13:58;13.10;99.90
53073;DHT22;38955;48.916;2.336;2024-01-30T08:16:00;13.20;99.90
53073;DHT22;38955;48.916;2.336;2024-01-30T08:18:02;13.20;99.90
53073;DHT22;38955;48.916;2.336;2024-01-30T08:20:06;13.10;99.90
53073;DHT22;38955;48.916;2.336;2024-01-30T08:22:12;13.20;99.90
53073;DHT22;38955;48.916;2.336;2024-01-30T08:24:14;13.10;99.90
53073;DHT22;38955;48.916;2.336;2024-01-30T08:26:16;13.10;99.90
53073;DHT22;38955;48.916;2.336;2024-01-30T08:28:18;13.20;99.90
53073;DHT22;38955;48.916;2.336;2024-01-30T08:30:22;13.20;99.90
53073;DHT22;38955;48.916;2.336;2024-01-30T08:32:27;13.10;99.90
53073;DHT22;38955;48.916;2.336;2024-01-30T08:34:29;13.10;99.90
53073;DHT22;38955;48.916;2.336;2024-01-30T08:36:31;13.10;99.90
53073;DHT22;38955;48.916;2.336;2024-01-30T08:38:35;13.00;99.90
53073;DHT22;38955;48.916;2.336;2024-01-30T08:40:37;13.10;99.90
53073;DHT22;38955;48.916;2.336;2024-01-30T08:42:39;13.10;99.90
53073;DHT22;38955;48.916;2.336;2024-01-30T08:44:41;13.10;99.90
53073;DHT22;38955;48.916;2.336;2024-01-30T08:46:44;13.10;99.90
53073;DHT22;38955;48.916;2.336;2024-01-30T08:48:47;13.10;99.90
53073;DHT22;38955;48.916;2.336;2024-01-30T08:50:50;13.10;99.90
53073;DHT22;38955;48.916;2.336;2024-01-30T08:52:52;13.10;99.90
53073;DHT22;38955;48.916;2.336;2024-01-30T08:54:55;13.10;99.90
53073;DHT22;38955;48.916;2.336;2024-01-30T08:56:57;13.10;99.90
53073;DHT22;38955;48.916;2.336;2024-01-30T08:59:00;13.10;99.90
53073;DHT22;38955;48.916;2.336;2024-01-30T09:01:02;13.20;99.90
53073;DHT22;38955;48.916;2.336;2024-01-30T09:03:06;13.20;99.90
53073;DHT22;38955;48.916;2.336;2024-01-30T09:05:08;13.20;99.90
53073;DHT22;38955;48.916;2.336;2024-01-30T09:07:10;13.20;99.90
53073;DHT22;38955;48.916;2.336;2024-01-30T09:09:13;13.20;99.90
53073;DHT22;38955;48.916;2.336;2024-01-30T09:11:18;13.20;99.90
53073;DHT22;38955;48.916;2.336;2024-01-30T09:13:20;13.10;99.90
53073;DHT22;38955;48.916;2.336;2024-01-30T09:15:22;13.10;99.90
53073;DHT22;38955;48.916;2.336;2024-01-30T09:17:27;13.10;99.90
53073;DHT22;38955;48.916;2.336;2024-01-30T09:19:30;13.20;99.90
53073;DHT22;38955;48.916;2.336;2024-01-30T09:21:32;13.10;99.90
53073;DHT22;38955;48.916;2.336;2024-01-30T09:23:34;13.20;99.90
53073;DHT22;38955;48.916;2.336;2024-01-30T09:25:37;13.10;99.90
53073;DHT22;38955;48.916;2.336;2024-01-30T09:27:40;13.10;99.90
53073;DHT22;38955;48.916;2.336;2024-01-30T09:29:42;13.20;99.90
53073;DHT22;38955;48.916;2.336;2024-01-30T09:31:47;13.20;99.90
53073;DHT22;38955;48.916;2.336;2024-01-30T09:33:51;13.20;99.90
53073;DHT22;38955;48.916;2.336;2024-01-30T09:35:56;13.20;99.90
53073;DHT22;38955;48.916;2.336;2024-01-30T09:37:58;13.20;99.90
53073;DHT22;38955;48.916;2.336;2024-01-30T09:40:00;13.20;99.90
53073;DHT22;38955;48.916;2.336;2024-01-30T09:42:05;13.20;99.90
53073;DHT22;38955;48.916;2.336;2024-01-30T09:44:11;13.20;99.90
53073;DHT22;38955;48.916;2.336;2024-01-30T09:46:15;13.10;99.90
53073;DHT22;38955;48.916;2.336;2024-01-30T09:48:18;13.10;99.90
53073;DHT22;38955;48.916;2.336;2024-01-30T09:50:21;13.10;99.90
53073;DHT22;38955;48.916;2.336;2024-01-30T09:52:23;13.10;99.90
53073;DHT22;38955;48.916;2.336;2024-01-30T09:54:25;13.10;99.90
53073;DHT22;38955;48.916;2.336;2024-01-30T09:56:27;13.20;99.90
53073;DHT22;38955;48.916;2.336;2024-01-30T09:58:29;13.30;99.90
53073;DHT22;38955;48.916;2.336;2024-01-30T10:00:32;13.20;99.90
53073;DHT22;38955;48.916;2.336;2024-01-30T10:02:35;13.30;99.90
53073;DHT22;38955;48.916;2.336;2024-01-30T10:04:37;13.40;99.90
53073;DHT22;38955;48.916;2.336;2024-01-30T10:06:40;13.30;99.90
53073;DHT22;38955;48.916;2.336;2024-01-30T10:08:43;13.30;99.90
53073;DHT22;38955;48.916;2.336;2024-01-30T10:10:46;13.40;99.90
53073;DHT22;38955;48.916;2.336;2024-01-30T10:12:48;13.40;99.90
53073;DHT22;38955;48.916;2.336;2024-01-30T10:14:51;13.50;99.90
53073;DHT22;38955;48.916;2.336;2024-01-30T10:16:55;13.50;99.90
53073;DHT22;38955;48.916;2.336;2024-01-30T10:18:57;13.60;99.90
53073;DHT22;38955;48.916;2.336;2024-01-30T10:20:59;13.60;99.90
53073;DHT22;38955;48.916;2.336;2024-01-30T10:23:02;13.70;99.90
53073;DHT22;38955;48.916;2.336;2024-01-30T10:25:05;13.60;99.90
53073;DHT22;38955;48.916;2.336;2024-01-30T10:27:07;13.70;99.90
53073;DHT22;38955;48.916;2.336;2024-01-30T10:29:10;13.70;99.90
53073;DHT22;38955;48.916;2.336;2024-01-30T10:31:16;13.80;99.90
53073;DHT22;38955;48.916;2.336;2024-01-30T10:33:20;13.80;99.90
53073;DHT22;38955;48.916;2.336;2024-01-30T10:35:22;13.80;99.90
53073;DHT22;38955;48.916;2.336;2024-01-30T10:37:25;13.80;99.90
53073;DHT22;38955;48.916;2.336;2024-01-30T10:39:29;13.80;99.90
53073;DHT22;38955;48.916;2.336;2024-01-30T10:41:39;13.80;99.90
53073;DHT22;38955;48.916;2.336;2024-01-30T10:43:47;13.90;99.90
53073;DHT22;38955;48.916;2.336;2024-01-30T10:45:53;13.90;99.90
53073;DHT22;38955;48.916;2.336;2024-01-30T10:47:58;13.90;99.90
53073;DHT22;38955;48.916;2.336;2024-01-30T10:50:03;14.00;99.90
53073;DHT22;38955;48.916;2.336;2024-01-30T10:52:06;13.90;99.90
53073;DHT22;38955;48.916;2.336;2024-01-30T10:54:10;13.80;99.90
53073;DHT22;38955;48.916;2.336;2024-01-30T10:56:14;13.80;99.90
53073;DHT22;38955;48.916;2.336;2024-01-30T10:58:18;13.80;99.90
53073;DHT22;38955;48.916;2.336;2024-01-30T11:00:21;13.90;99.90
53073;DHT22;38955;48.916;2.336;2024-01-30T11:02:26;13.90;99.90
53073;DHT22;38955;48.916;2.336;2024-01-30T11:04:35;14.00;99.90
53073;DHT22;38955;48.916;2.336;2024-01-30T11:06:42;13.90;99.90
53073;DHT22;38955;48.916;2.336;2024-01-30T11:08:45;13.90;99.90
53073;DHT22;38955;48.916;2.336;2024-01-30T11:10:48;14.00;99.90
53073;DHT22;38955;48.916;2.336;2024-01-30T11:12:50;13.90;99.90
53073;DHT22;38955;48.916;2.336;2024-01-30T11:15:02;13.90;99.90
53073;DHT22;38955;48.916;2.336;2024-01-30T11:17:07;13.90;99.90
53073;DHT22;38955;48.916;2.336;2024-01-30T11:19:11;13.80;99.90
53073;DHT22;38955;48.916;2.336;2024-01-30T11:21:14;13.80;99.90
53073;DHT22;38955;48.916;2.336;2024-01-30T11:23:17;13.80;99.90
53073;DHT22;38955;48.916;2.336;2024-01-30T11:25:21;13.80;99.90
53073;DHT22;38955;48.916;2.336;2024-01-30T11:27:24;13.80;99.90
53073;DHT22;38955;48.916;2.336;2024-01-30T11:29:35;13.80;99.90
53073;DHT22;38955;48.916;2.336;2024-01-30T11:31:37;13.70;99.90
53073;DHT22;38955;48.916;2.336;2024-01-30T11:33:39;13.60;99.90
53073;DHT22;38955;48.916;2.336;2024-01-30T11:35:42;13.50;99.90
53073;DHT22;38955;48.916;2.336;2024-01-30T11:37:46;13.40;99.90
53073;DHT22;38955;48.916;2.336;2024-01-30T11:39:53;13.40;99.90
53073;DHT22;38955;48.916;2.336;2024-01-30T11:41:56;13.20;99.90
53073;DHT22;38955;48.916;2.336;2024-01-30T11:43:58;13.20;99.90
53073;DHT22;38955;48.916;2.336;2024-01-30T11:46:01;13.20;99.90
53073;DHT22;38955;48.916;2.336;2024-01-30T11:48:03;13.20;99.90
53073;DHT22;38955;48.916;2.336;2024-01-30T11:50:07;13.20;99.90
53073;DHT22;38955;48.916;2.336;2024-01-30T11:52:10;13.30;99.90
53073;DHT22;38955;48.916;2.336;2024-01-30T11:54:12;13.30;99.90
53073;DHT22;38955;48.916;2.336;2024-01-30T11:56:15;13.40;99.90
53073;DHT22;38955;48.916;2.336;2024-01-30T11:58:17;13.40;99.90
53073;DHT22;38955;48.916;2.336;2024-01-30T12:00:20;13.40;99.90
53073;DHT22;38955;48.916;2.336;2024-01-30T12:02:22;13.40;99.90
53073;DHT22;38955;48.916;2.336;2024-01-30T12:04:28;13.20;99.90
53073;DHT22;38955;48.916;2.336;2024-01-30T12:06:30;13.30;99.90
53073;DHT22;38955;48.916;2.336;2024-01-30T12:08:32;13.50;99.90
53073;DHT22;38955;48.916;2.336;2024-01-30T12:10:34;13.50;99.90
53073;DHT22;38955;48.916;2.336;2024-01-30T12:12:38;13.40;99.90
53073;DHT22;38955;48.916;2.336;2024-01-30T12:14:40;13.40;99.90
53073;DHT22;38955;48.916;2.336;2024-01-30T12:16:43;13.40;99.90
53073;DHT22;38955;48.916;2.336;2024-01-30T12:18:45;13.40;99.90
53073;DHT22;38955;48.916;2.336;2024-01-30T12:20:57;13.50;99.90
53073;DHT22;38955;48.916;2.336;2024-01-30T12:22:59;13.40;99.90
53073;DHT22;38955;48.916;2.336;2024-01-30T12:25:02;13.40;99.90
53073;DHT22;38955;48.916;2.336;2024-01-30T12:27:04;13.40;99.90
53073;DHT22;38955;48.916;2.336;2024-01-30T12:29:08;13.40;99.90
53073;DHT22;38955;48.916;2.336;2024-01-30T12:31:10;13.30;99.90
53073;DHT22;38955;48.916;2.336;2024-01-30T12:33:16;13.40;99.80
53073;DHT22;38955;48.916;2.336;2024-01-30T12:35:20;13.50;99.80
53073;DHT22;38955;48.916;2.336;2024-01-30T12:37:23;13.50;99.60
53073;DHT22;38955;48.916;2.336;2024-01-30T12:39:26;13.50;99.50
53073;DHT22;38955;48.916;2.336;2024-01-30T12:41:29;13.50;99.40
53073;DHT22;38955;48.916;2.336;2024-01-30T12:43:32;13.50;99.40
53073;DHT22;38955;48.916;2.336;2024-01-30T12:45:41;13.40;99.20
53073;DHT22;38955;48.916;2.336;2024-01-30T12:47:43;13.30;99.40
53073;DHT22;38955;48.916;2.336;2024-01-30T12:49:45;13.30;99.70
53073;DHT22;38955;48.916;2.336;2024-01-30T12:51:48;13.20;99.40
53073;DHT22;38955;48.916;2.336;2024-01-30T12:53:50;13.30;99.20
53073;DHT22;38955;48.916;2.336;2024-01-30T12:55:52;13.40;99.10